Time,TemperatureF,DewpointF,PressureIn,WindDirection,WindDirectionDegrees,WindSpeedMPH,WindSpeedGustMPH,Humidity,HourlyPrecipIn,Conditions,Clouds,dailyrainin,SoftwareType,DateUTC
2013-02-09 00:02:00,51.6,51.3,29.91,SSE,157,0.0,-999.0,99,-99.99,,,0.00,Acu-Link.com,2013-02-09 05:02:00,
2013-02-09 00:18:00,51.4,50.9,29.91,WSW,247,0.0,-999.0,98,-99.99,,,0.00,Acu-Link.com,2013-02-09 05:18:00,
2013-02-09 00:33:00,51.3,50.7,29.90,South,180,0.0,-999.0,98,-99.99,,,0.00,Acu-Link.com,2013-02-09 05:33:00,
2013-02-09 00:48:00,50.9,50.6,29.90,South,180,0.0,-999.0,99,-99.99,,,0.00,Acu-Link.com,2013-02-09 05:48:00,
2013-02-09 01:04:00,50.5,50.3,29.90,South,180,0.0,-999.0,99,-99.99,,,0.00,Acu-Link.com,2013-02-09 06:04:00,
2013-02-09 01:19:00,50.2,49.9,29.91,South,180,0.0,-999.0,99,-99.99,,,0.00,Acu-Link.com,2013-02-09 06:19:00,
2013-02-09 01:34:00,49.8,49.6,29.91,East,90,0.0,-999.0,99,-99.99,,,0.00,Acu-Link.com,2013-02-09 06:34:00,
2013-02-09 01:49:00,49.6,49.4,29.91,ESE,112,0.0,-999.0,99,-99.99,,,0.00,Acu-Link.com,2013-02-09 06:49:00,
2013-02-09 02:05:00,49.5,49.2,29.91,SSE,157,0.0,-999.0,99,-99.99,,,0.00,Acu-Link.com,2013-02-09 07:05:00,
2013-02-09 02:20:00,49.1,48.8,29.91,SSE,157,0.0,-999.0,99,-99.99,,,0.00,Acu-Link.com,2013-02-09 07:20:00,
2013-02-09 02:35:00,48.9,48.7,29.91,West,270,0.0,-999.0,99,-99.99,,,0.00,Acu-Link.com,2013-02-09 07:35:00,
2013-02-09 02:50:00,48.6,48.3,29.92,WNW,292,0.0,-999.0,99,-99.99,,,0.00,Acu-Link.com,2013-02-09 07:50:00,
2013-02-09 03:06:00,48.6,48.3,29.91,WSW,247,0.0,-999.0,99,-99.99,,,0.00,Acu-Link.com,2013-02-09 08:06:00,
2013-02-09 03:21:00,48.6,48.3,29.92,NE,45,0.0,-999.0,99,-99.99,,,0.00,Acu-Link.com,2013-02-09 08:21:00,
2013-02-09 03:36:00,48.6,48.3,29.92,WNW,292,0.0,-999.0,99,-99.99,,,0.00,Acu-Link.com,2013-02-09 08:36:00,
2013-02-09 03:52:00,48.7,48.5,29.93,WNW,292,0.0,-999.0,99,-99.99,,,0.00,Acu-Link.com,2013-02-09 08:52:00,
2013-02-09 04:07:00,48.9,48.7,29.93,West,270,0.0,-999.0,99,-99.99,,,0.00,Acu-Link.com,2013-02-09 09:07:00,
2013-02-09 04:22:00,48.9,48.7,29.92,West,270,0.0,-999.0,99,-99.99,,,0.00,Acu-Link.com,2013-02-09 09:22:00,
2013-02-09 04:38:00,48.9,48.7,29.93,SSE,157,0.0,-999.0,99,-99.99,,,0.00,Acu-Link.com,2013-02-09 09:38:00,
2013-02-09 04:53:00,48.6,48.3,29.94,South,180,0.0,-999.0,99,-99.99,,,0.00,Acu-Link.com,2013-02-09 09:53:00,
2013-02-09 05:08:00,48.4,48.1,29.94,East,90,0.0,-999.0,99,-99.99,,,0.00,Acu-Link.com,2013-02-09 10:08:00,
2013-02-09 05:23:00,48.0,47.8,29.95,South,180,0.0,-999.0,99,-99.99,,,0.00,Acu-Link.com,2013-02-09 10:23:00,
2013-02-09 05:38:00,47.8,47.6,29.97,South,180,0.0,-999.0,99,-99.99,,,0.00,Acu-Link.com,2013-02-09 10:38:00,
2013-02-09 05:54:00,47.5,47.2,29.97,SSE,157,0.0,-999.0,99,-99.99,,,0.00,Acu-Link.com,2013-02-09 10:54:00,
2013-02-09 06:09:00,46.8,46.5,29.97,SE,135,0.0,-999.0,99,-99.99,,,0.00,Acu-Link.com,2013-02-09 11:09:00,
2013-02-09 06:24:00,46.4,46.1,29.97,West,270,0.0,-999.0,99,-99.99,,,0.00,Acu-Link.com,2013-02-09 11:24:00,
2013-02-09 06:40:00,46.2,46.0,29.98,ESE,112,0.0,-999.0,99,-99.99,,,0.00,Acu-Link.com,2013-02-09 11:40:00,
2013-02-09 06:55:00,46.2,46.0,29.99,NE,45,0.0,-999.0,99,-99.99,,,0.00,Acu-Link.com,2013-02-09 11:55:00,
2013-02-09 07:10:00,46.0,45.8,29.98,NW,315,0.0,-999.0,99,-99.99,,,0.00,Acu-Link.com,2013-02-09 12:10:00,
2013-02-09 07:26:00,46.2,46.0,29.99,SSE,157,0.0,-999.0,99,-99.99,,,0.00,Acu-Link.com,2013-02-09 12:26:00,
2013-02-09 07:41:00,46.4,46.1,30.01,West,270,0.0,-999.0,99,-99.99,,,0.00,Acu-Link.com,2013-02-09 12:41:00,
2013-02-09 07:56:00,46.8,46.5,30.01,SE,135,0.0,-999.0,99,-99.99,,,0.00,Acu-Link.com,2013-02-09 12:56:00,
2013-02-09 08:11:00,47.5,47.2,30.01,West,270,0.0,-999.0,99,-99.99,,,0.00,Acu-Link.com,2013-02-09 13:11:00,
2013-02-09 08:27:00,48.9,48.1,30.02,NE,45,0.0,-999.0,97,-99.99,,,0.00,Acu-Link.com,2013-02-09 13:27:00,
2013-02-09 08:42:00,52.3,48.9,30.02,WSW,247,1.1,-999.0,88,-99.99,,,0.00,Acu-Link.com,2013-02-09 13:42:00,
2013-02-09 08:57:00,52.9,48.8,30.02,NNE,22,2.2,-999.0,86,-99.99,,,0.00,Acu-Link.com,2013-02-09 13:57:00,
2013-02-09 09:13:00,54.9,49.1,30.03,NE,45,1.1,-999.0,81,-99.99,,,0.00,Acu-Link.com,2013-02-09 14:13:00,
2013-02-09 09:28:00,55.6,50.8,30.04,SSE,157,1.1,-999.0,84,-99.99,,,0.00,Acu-Link.com,2013-02-09 14:28:00,
2013-02-09 09:43:00,57.6,50.8,30.05,ENE,67,2.2,-999.0,78,-99.99,,,0.00,Acu-Link.com,2013-02-09 14:43:00,
2013-02-09 09:59:00,59.0,51.1,30.05,ENE,67,2.2,-999.0,75,-99.99,,,0.00,Acu-Link.com,2013-02-09 14:59:00,
2013-02-09 10:14:00,62.4,52.1,30.06,SSE,157,5.1,-999.0,69,-99.99,,,0.00,Acu-Link.com,2013-02-09 15:14:00,
2013-02-09 10:29:00,63.0,52.2,30.06,NW,315,3.8,-999.0,68,-99.99,,,0.00,Acu-Link.com,2013-02-09 15:29:00,
2013-02-09 10:44:00,63.3,51.8,30.06,NNE,22,1.6,-999.0,66,-99.99,,,0.00,Acu-Link.com,2013-02-09 15:44:00,
2013-02-09 10:59:00,64.0,51.2,30.06,SSE,157,1.6,-999.0,63,-99.99,,,0.00,Acu-Link.com,2013-02-09 15:59:00,
2013-02-09 11:15:00,63.1,51.2,30.06,East,90,2.2,-999.0,65,-99.99,,,0.00,Acu-Link.com,2013-02-09 16:15:00,
2013-02-09 11:30:00,64.0,50.8,30.06,ENE,67,4.3,-999.0,62,-99.99,,,0.00,Acu-Link.com,2013-02-09 16:30:00,
2013-02-09 11:45:00,62.8,49.6,30.06,East,90,1.1,-999.0,62,-99.99,,,0.00,Acu-Link.com,2013-02-09 16:45:00,
2013-02-09 12:00:00,63.7,49.5,30.05,South,180,3.8,-999.0,60,-99.99,,,0.00,Acu-Link.com,2013-02-09 17:00:00,
2013-02-09 12:16:00,63.5,48.5,30.05,ESE,112,3.1,-999.0,58,-99.99,,,0.00,Acu-Link.com,2013-02-09 17:16:00,
2013-02-09 12:31:00,66.6,49.4,30.05,West,270,1.6,-999.0,54,-99.99,,,0.00,Acu-Link.com,2013-02-09 17:31:00,
2013-02-09 12:46:00,65.8,48.2,30.04,NNW,337,5.1,-999.0,53,-99.99,,,0.00,Acu-Link.com,2013-02-09 17:46:00,
2013-02-09 13:02:00,66.6,48.4,30.03,NNW,337,2.2,-999.0,52,-99.99,,,0.00,Acu-Link.com,2013-02-09 18:02:00,
2013-02-09 13:17:00,66.6,47.9,30.03,South,180,2.7,-999.0,51,-99.99,,,0.00,Acu-Link.com,2013-02-09 18:17:00,
2013-02-09 13:32:00,66.2,48.0,30.01,ESE,112,2.2,-999.0,52,-99.99,,,0.00,Acu-Link.com,2013-02-09 18:32:00,
2013-02-09 13:47:00,67.1,47.8,30.01,SSE,157,1.6,-999.0,50,-99.99,,,0.00,Acu-Link.com,2013-02-09 18:47:00,
2013-02-09 14:03:00,65.7,46.0,30.00,NE,45,3.8,-999.0,49,-99.99,,,0.00,Acu-Link.com,2013-02-09 19:03:00,
2013-02-09 14:18:00,65.3,44.5,30.00,NE,45,2.7,-999.0,47,-99.99,,,0.00,Acu-Link.com,2013-02-09 19:18:00,
2013-02-09 14:33:00,65.7,46.0,30.00,ENE,67,2.7,-999.0,49,-99.99,,,0.00,Acu-Link.com,2013-02-09 19:33:00,
2013-02-09 14:49:00,65.3,46.7,30.01,ENE,67,4.3,-999.0,51,-99.99,,,0.00,Acu-Link.com,2013-02-09 19:49:00,
2013-02-09 15:04:00,64.8,45.7,30.00,ENE,67,1.6,-999.0,50,-99.99,,,0.00,Acu-Link.com,2013-02-09 20:04:00,
2013-02-09 15:19:00,65.5,46.9,30.00,SSW,202,3.1,-999.0,51,-99.99,,,0.00,Acu-Link.com,2013-02-09 20:19:00,
2013-02-09 15:35:00,65.1,47.1,30.01,SSE,157,4.7,-999.0,52,-99.99,,,0.00,Acu-Link.com,2013-02-09 20:35:00,
2013-02-09 15:50:00,64.6,46.6,30.01,NE,45,2.2,-999.0,52,-99.99,,,0.00,Acu-Link.com,2013-02-09 20:50:00,
2013-02-09 16:05:00,65.8,48.2,30.01,ENE,67,2.7,-999.0,53,-99.99,,,0.00,Acu-Link.com,2013-02-09 21:05:00,
2013-02-09 16:20:00,64.6,47.1,30.02,SSE,157,6.7,-999.0,53,-99.99,,,0.00,Acu-Link.com,2013-02-09 21:20:00,
2013-02-09 16:36:00,64.2,47.2,30.02,ESE,112,2.7,-999.0,54,-99.99,,,0.00,Acu-Link.com,2013-02-09 21:36:00,
2013-02-09 16:51:00,63.0,46.1,30.03,NE,45,3.1,-999.0,54,-99.99,,,0.00,Acu-Link.com,2013-02-09 21:51:00,
2013-02-09 17:06:00,61.9,45.1,30.04,ESE,112,4.7,-999.0,54,-99.99,,,0.00,Acu-Link.com,2013-02-09 22:06:00,
2013-02-09 17:22:00,61.2,44.4,30.04,ESE,112,2.7,-999.0,54,-99.99,,,0.00,Acu-Link.com,2013-02-09 22:22:00,
2013-02-09 17:37:00,60.4,44.7,30.03,NNE,22,2.2,-999.0,56,-99.99,,,0.00,Acu-Link.com,2013-02-09 22:37:00,
2013-02-09 17:52:00,59.5,43.8,30.04,SE,135,1.1,-999.0,56,-99.99,,,0.00,Acu-Link.com,2013-02-09 22:52:00,
2013-02-09 18:08:00,58.6,44.4,30.03,ENE,67,1.1,-999.0,59,-99.99,,,0.00,Acu-Link.com,2013-02-09 23:08:00,
2013-02-09 18:23:00,57.7,43.9,30.04,East,90,1.1,-999.0,60,-99.99,,,0.00,Acu-Link.com,2013-02-09 23:23:00,
2013-02-09 18:38:00,57.0,44.5,30.03,SE,135,0.0,-999.0,63,-99.99,,,0.00,Acu-Link.com,2013-02-09 23:38:00,
2013-02-09 18:53:00,55.9,43.1,30.03,SE,135,0.0,-999.0,62,-99.99,,,0.00,Acu-Link.com,2013-02-09 23:53:00,
2013-02-09 19:08:00,55.2,44.1,30.04,East,90,0.0,-999.0,66,-99.99,,,0.00,Acu-Link.com,2013-02-10 00:08:00,
2013-02-09 19:24:00,54.1,43.0,30.03,East,90,1.1,-999.0,66,-99.99,,,0.00,Acu-Link.com,2013-02-10 00:24:00,
2013-02-09 19:39:00,53.4,43.9,30.05,SE,135,0.0,-999.0,70,-99.99,,,0.00,Acu-Link.com,2013-02-10 00:39:00,
2013-02-09 19:54:00,52.5,43.8,30.04,NNE,22,0.0,-999.0,72,-99.99,,,0.00,Acu-Link.com,2013-02-10 00:54:00,
2013-02-09 20:10:00,51.8,43.4,30.05,SE,135,0.0,-999.0,73,-99.99,,,0.00,Acu-Link.com,2013-02-10 01:10:00,
2013-02-09 20:25:00,51.1,43.8,30.06,SE,135,0.0,-999.0,76,-99.99,,,0.00,Acu-Link.com,2013-02-10 01:25:00,
2013-02-09 20:40:00,50.4,44.4,30.05,SE,135,0.0,-999.0,80,-99.99,,,0.00,Acu-Link.com,2013-02-10 01:40:00,
2013-02-09 20:56:00,49.8,44.9,30.06,SE,135,0.0,-999.0,83,-99.99,,,0.00,Acu-Link.com,2013-02-10 01:56:00,
2013-02-09 21:11:00,49.3,44.7,30.06,SE,135,0.0,-999.0,84,-99.99,,,0.00,Acu-Link.com,2013-02-10 02:11:00,
2013-02-09 21:26:00,48.9,44.6,30.06,NW,315,0.0,-999.0,85,-99.99,,,0.00,Acu-Link.com,2013-02-10 02:26:00,
2013-02-09 21:42:00,48.4,45.0,30.06,NNE,22,0.0,-999.0,88,-99.99,,,0.00,Acu-Link.com,2013-02-10 02:42:00,
2013-02-09 21:57:00,48.0,44.3,30.07,ESE,112,0.0,-999.0,87,-99.99,,,0.00,Acu-Link.com,2013-02-10 02:57:00,
2013-02-09 22:12:00,47.7,44.6,30.07,ESE,112,0.0,-999.0,89,-99.99,,,0.00,Acu-Link.com,2013-02-10 03:12:00,
2013-02-09 22:28:00,47.5,44.7,30.06,West,270,0.0,-999.0,90,-99.99,,,0.00,Acu-Link.com,2013-02-10 03:28:00,
2013-02-09 22:43:00,46.9,44.2,30.06,ESE,112,0.0,-999.0,90,-99.99,,,0.00,Acu-Link.com,2013-02-10 03:43:00,
2013-02-09 22:58:00,46.6,44.1,30.06,South,180,0.0,-999.0,91,-99.99,,,0.00,Acu-Link.com,2013-02-10 03:58:00,
2013-02-09 23:14:00,46.2,44.0,30.06,ESE,112,0.0,-999.0,92,-99.99,,,0.00,Acu-Link.com,2013-02-10 04:14:00,
2013-02-09 23:29:00,45.9,43.7,30.07,SE,135,0.0,-999.0,92,-99.99,,,0.00,Acu-Link.com,2013-02-10 04:29:00,
2013-02-09 23:44:00,45.7,43.8,30.06,SE,135,0.0,-999.0,93,-99.99,,,0.00,Acu-Link.com,2013-02-10 04:44:00,
2013-02-09 23:59:00,45.3,43.7,30.06,SSE,157,0.0,-999.0,94,-99.99,,,0.00,Acu-Link.com,2013-02-10 04:59:00,